Terminal Aerodrome Forecast
Issued by NWS

Home | Current Version | Previous Version | Text Only | Print | Product List | Glossary On
Versions: 1 2 3 4 5 6 7 8 9 10 11 12 13 14 15 16
000
FTUS46 KMTR 200500
TAFOAK
TAF
KOAK 200528Z 2006/2112 24006KT P6SM BKN008
     FM200800 23005KT P6SM SCT010
     FM201600 29006KT P6SM SKC
     FM202000 29014KT P6SM SKC
     FM210400 29008KT P6SM SKC=

USA.gov is the U.S. government's official web portal to all federal, state and local government web resources and services.